createdAt,value
2022-10-06T00:04:43.655Z,10.20
2022-10-06T00:10:45.520Z,10.00
2022-10-06T00:16:47.242Z,9.52
2022-10-06T00:22:52.769Z,10.00
2022-10-06T00:28:54.551Z,9.91
2022-10-06T00:34:58.790Z,9.95
2022-10-06T00:41:00.706Z,9.59
2022-10-06T00:47:03.255Z,9.66
2022-10-06T00:53:06.274Z,10.46
2022-10-06T00:59:17.535Z,10.29
2022-10-06T01:05:32.191Z,10.93
2022-10-06T01:11:37.866Z,9.47
2022-10-06T01:17:50.917Z,10.02
2022-10-06T01:23:53.181Z,10.19
2022-10-06T01:29:56.563Z,10.67
2022-10-06T01:35:58.367Z,11.10
2022-10-06T01:42:00.071Z,10.29
2022-10-06T01:48:01.963Z,9.35
2022-10-06T01:54:03.878Z,9.60
2022-10-06T02:00:07.058Z,8.84
2022-10-06T02:06:09.717Z,9.77
2022-10-06T02:12:11.435Z,10.51
2022-10-06T02:18:13.143Z,8.96
2022-10-06T02:24:14.881Z,9.91
2022-10-06T02:30:16.971Z,9.87
2022-10-06T02:36:19.050Z,10.20
2022-10-06T02:42:20.785Z,9.91
2022-10-06T02:48:24.580Z,9.07
2022-10-06T02:54:26.305Z,8.54
2022-10-06T03:00:28.145Z,8.79
2022-10-06T03:06:31.280Z,9.51
2022-10-06T03:12:33.009Z,7.88
2022-10-06T03:18:36.224Z,8.50
2022-10-06T03:24:38.010Z,7.99
2022-10-06T03:30:39.747Z,9.02
2022-10-06T03:36:41.783Z,8.28
2022-10-06T03:42:43.500Z,9.03
2022-10-06T03:48:46.104Z,8.38
2022-10-06T03:54:47.868Z,7.88
2022-10-06T04:00:49.689Z,9.21
2022-10-06T04:06:51.593Z,8.66
2022-10-06T04:12:53.369Z,8.60
2022-10-06T04:18:58.063Z,7.75
2022-10-06T04:24:59.770Z,7.80
2022-10-06T04:31:01.988Z,7.80
2022-10-06T04:37:04.211Z,9.13
2022-10-06T04:43:06.014Z,8.48
2022-10-06T04:49:07.796Z,7.95
2022-10-06T04:55:11.207Z,8.47
2022-10-06T05:01:18.582Z,9.18
2022-10-06T05:07:20.402Z,8.82
2022-10-06T05:13:22.165Z,7.88
2022-10-06T05:19:23.900Z,8.59
2022-10-06T05:25:25.684Z,9.01
2022-10-06T05:31:33.093Z,9.55
2022-10-06T05:37:34.929Z,9.26
2022-10-06T05:43:37.691Z,9.50
2022-10-06T05:49:39.530Z,10.02
2022-10-06T05:55:43.828Z,10.17
2022-10-06T06:01:45.813Z,9.68
2022-10-06T06:07:47.753Z,10.39
2022-10-06T06:13:59.237Z,10.82
2022-10-06T06:20:01.188Z,11.25
2022-10-06T06:26:09.295Z,11.19
2022-10-06T06:32:11.405Z,11.82
2022-10-06T06:51:15.754Z,12.10
2022-10-06T06:57:19.688Z,12.69
2022-10-06T07:03:56.225Z,12.29
2022-10-06T07:22:48.462Z,14.12
2022-10-06T07:54:53.879Z,14.73
2022-10-06T11:54:45.515Z,23.07
2022-10-06T13:00:43.411Z,21.50
2022-10-06T16:11:15.365Z,18.24
2022-10-06T16:23:35.103Z,17.57
2022-10-06T16:29:36.967Z,18.18
2022-10-06T16:35:38.968Z,17.25
2022-10-06T16:41:41.084Z,17.23
2022-10-06T16:47:43.407Z,16.81
2022-10-06T16:53:51.005Z,16.94
2022-10-06T16:59:52.876Z,16.75
2022-10-06T17:05:54.737Z,15.76
2022-10-06T17:12:01.955Z,14.63
2022-10-06T17:18:03.834Z,15.21
2022-10-06T17:24:06.304Z,16.26
2022-10-06T17:30:08.842Z,15.46
2022-10-06T17:36:16.751Z,15.43
2022-10-06T17:42:18.507Z,14.64
2022-10-06T17:48:20.295Z,14.34
2022-10-06T17:54:24.454Z,13.95
2022-10-06T18:00:26.203Z,14.85
2022-10-06T18:06:29.839Z,14.31
2022-10-06T18:12:36.297Z,14.49
2022-10-06T18:18:43.932Z,14.54
2022-10-06T18:24:45.729Z,14.48
2022-10-06T18:30:51.471Z,13.14
2022-10-06T18:36:53.312Z,13.72
2022-10-06T18:42:55.113Z,13.81
2022-10-06T18:48:59.511Z,13.51
2022-10-06T18:55:01.357Z,13.53
2022-10-06T19:01:07.206Z,13.13
2022-10-06T19:07:09.398Z,13.69
2022-10-06T19:13:11.537Z,12.66
2022-10-06T19:19:19.410Z,12.76
2022-10-06T19:25:21.968Z,12.58
2022-10-06T19:31:23.813Z,13.02
2022-10-06T19:37:30.311Z,12.97
2022-10-06T19:43:32.143Z,13.30
2022-10-06T19:49:35.318Z,13.23
2022-10-06T19:55:37.114Z,12.35
2022-10-06T20:01:39.191Z,12.57
2022-10-06T20:07:43.979Z,12.88
2022-10-06T20:13:46.635Z,12.88
2022-10-06T20:19:48.503Z,13.13
2022-10-06T20:25:50.260Z,12.42
2022-10-06T20:31:54.008Z,13.08
2022-10-06T20:37:55.742Z,13.05
2022-10-06T20:43:58.649Z,12.95
2022-10-06T20:50:00.426Z,12.65
2022-10-06T20:56:02.318Z,12.42
2022-10-06T21:02:05.384Z,12.14
2022-10-06T21:08:07.094Z,12.69
2022-10-06T21:14:11.535Z,12.53
2022-10-06T21:20:13.319Z,12.86
2022-10-06T21:26:18.601Z,13.29
2022-10-06T21:32:20.284Z,13.11
2022-10-06T21:38:22.021Z,13.21
2022-10-06T21:44:23.728Z,13.44
2022-10-06T21:50:25.553Z,13.59
2022-10-06T21:56:30.235Z,13.93
2022-10-06T22:02:32.009Z,13.91
2022-10-06T22:08:35.454Z,13.84
2022-10-06T22:14:37.622Z,14.38
2022-10-06T22:20:39.455Z,14.18
2022-10-06T22:26:42.817Z,14.17
2022-10-06T22:32:44.584Z,14.38
2022-10-06T22:38:46.386Z,14.58
2022-10-06T22:44:48.267Z,14.72
2022-10-06T22:50:50.661Z,14.64
2022-10-06T22:56:52.426Z,14.95
2022-10-06T23:02:55.105Z,15.02
2022-10-06T23:08:57.390Z,14.87
2022-10-06T23:14:59.159Z,14.91
2022-10-06T23:21:05.632Z,15.16
2022-10-06T23:27:07.433Z,15.06
2022-10-06T23:33:09.246Z,14.76
2022-10-06T23:39:11.135Z,15.35
2022-10-06T23:45:13.045Z,15.33
2022-10-06T23:57:31.721Z,15.17
